sensor_id;sensor_type;location;lat;lon;timestamp;P1;durP1;ratioP1;P2;durP2;ratioP2
1569;SDS011;778;50.120;8.698;2023-06-19T00:00:03;11.77;;;10.83;;
1569;SDS011;778;50.120;8.698;2023-06-19T00:02:37;12.17;;;11.17;;
1569;SDS011;778;50.120;8.698;2023-06-19T00:05:06;12.37;;;10.73;;
1569;SDS011;778;50.120;8.698;2023-06-19T00:07:36;10.87;;;9.93;;
1569;SDS011;778;50.120;8.698;2023-06-19T00:10:05;11.00;;;10.13;;
1569;SDS011;778;50.120;8.698;2023-06-19T00:12:34;11.10;;;10.20;;
1569;SDS011;778;50.120;8.698;2023-06-19T00:15:05;11.83;;;10.73;;
1569;SDS011;778;50.120;8.698;2023-06-19T00:17:36;11.10;;;10.30;;
1569;SDS011;778;50.120;8.698;2023-06-19T00:20:05;10.50;;;9.70;;
1569;SDS011;778;50.120;8.698;2023-06-19T00:22:35;10.60;;;9.80;;
1569;SDS011;778;50.120;8.698;2023-06-19T00:25:04;10.53;;;9.63;;
1569;SDS011;778;50.120;8.698;2023-06-19T00:27:33;11.53;;;10.50;;
1569;SDS011;778;50.120;8.698;2023-06-19T00:30:04;12.07;;;11.00;;
1569;SDS011;778;50.120;8.698;2023-06-19T00:32:36;10.00;;;9.20;;
1569;SDS011;778;50.120;8.698;2023-06-19T00:35:13;9.80;;;9.00;;
1569;SDS011;778;50.120;8.698;2023-06-19T00:37:46;10.27;;;9.47;;
1569;SDS011;778;50.120;8.698;2023-06-19T00:40:16;10.50;;;9.57;;
1569;SDS011;778;50.120;8.698;2023-06-19T00:42:53;10.77;;;9.87;;
1569;SDS011;778;50.120;8.698;2023-06-19T00:45:24;9.83;;;8.83;;
1569;SDS011;778;50.120;8.698;2023-06-19T00:47:55;11.53;;;10.43;;
1569;SDS011;778;50.120;8.698;2023-06-19T00:50:25;11.67;;;10.30;;
1569;SDS011;778;50.120;8.698;2023-06-19T00:52:57;11.10;;;9.93;;
1569;SDS011;778;50.120;8.698;2023-06-19T00:55:27;11.27;;;10.20;;
1569;SDS011;778;50.120;8.698;2023-06-19T00:57:57;10.60;;;9.70;;
1569;SDS011;778;50.120;8.698;2023-06-19T01:00:27;10.10;;;9.30;;
1569;SDS011;778;50.120;8.698;2023-06-19T01:02:56;10.70;;;9.67;;
1569;SDS011;778;50.120;8.698;2023-06-19T01:05:27;10.83;;;10.07;;
1569;SDS011;778;50.120;8.698;2023-06-19T01:07:58;10.43;;;9.53;;
1569;SDS011;778;50.120;8.698;2023-06-19T01:10:31;10.53;;;9.63;;
1569;SDS011;778;50.120;8.698;2023-06-19T01:13:06;10.27;;;9.37;;
1569;SDS011;778;50.120;8.698;2023-06-19T01:15:39;10.53;;;9.43;;
1569;SDS011;778;50.120;8.698;2023-06-19T01:18:10;11.23;;;10.33;;
1569;SDS011;778;50.120;8.698;2023-06-19T01:20:41;10.10;;;9.40;;
1569;SDS011;778;50.120;8.698;2023-06-19T01:23:12;10.43;;;9.43;;
1569;SDS011;778;50.120;8.698;2023-06-19T01:25:41;10.87;;;9.97;;
1569;SDS011;778;50.120;8.698;2023-06-19T01:28:10;9.93;;;9.23;;
1569;SDS011;778;50.120;8.698;2023-06-19T01:30:40;10.30;;;9.50;;
1569;SDS011;778;50.120;8.698;2023-06-19T01:33:11;11.40;;;10.50;;
1569;SDS011;778;50.120;8.698;2023-06-19T01:35:43;10.63;;;9.37;;
1569;SDS011;778;50.120;8.698;2023-06-19T01:38:15;10.77;;;9.80;;
1569;SDS011;778;50.120;8.698;2023-06-19T01:40:45;12.70;;;11.60;;
1569;SDS011;778;50.120;8.698;2023-06-19T01:43:16;11.63;;;10.63;;
1569;SDS011;778;50.120;8.698;2023-06-19T01:45:45;10.93;;;9.83;;
1569;SDS011;778;50.120;8.698;2023-06-19T01:48:14;11.73;;;10.73;;
1569;SDS011;778;50.120;8.698;2023-06-19T01:50:44;11.80;;;10.90;;
1569;SDS011;778;50.120;8.698;2023-06-19T01:53:13;12.13;;;11.17;;
1569;SDS011;778;50.120;8.698;2023-06-19T01:55:45;13.17;;;11.83;;
1569;SDS011;778;50.120;8.698;2023-06-19T01:58:14;11.83;;;10.77;;
1569;SDS011;778;50.120;8.698;2023-06-19T02:00:44;11.13;;;10.33;;
1569;SDS011;778;50.120;8.698;2023-06-19T02:03:13;12.20;;;11.10;;
1569;SDS011;778;50.120;8.698;2023-06-19T02:05:42;11.93;;;11.03;;
1569;SDS011;778;50.120;8.698;2023-06-19T02:08:11;12.27;;;11.23;;
1569;SDS011;778;50.120;8.698;2023-06-19T02:10:41;13.33;;;12.23;;
1569;SDS011;778;50.120;8.698;2023-06-19T02:13:14;13.03;;;11.90;;
1569;SDS011;778;50.120;8.698;2023-06-19T02:15:43;11.80;;;10.80;;
1569;SDS011;778;50.120;8.698;2023-06-19T02:18:11;12.27;;;11.37;;
1569;SDS011;778;50.120;8.698;2023-06-19T02:20:41;12.93;;;11.93;;
1569;SDS011;778;50.120;8.698;2023-06-19T02:23:09;12.47;;;11.47;;
1569;SDS011;778;50.120;8.698;2023-06-19T02:25:38;12.70;;;11.50;;
1569;SDS011;778;50.120;8.698;2023-06-19T02:28:09;12.57;;;11.30;;
1569;SDS011;778;50.120;8.698;2023-06-19T02:30:38;11.93;;;11.00;;
1569;SDS011;778;50.120;8.698;2023-06-19T02:33:07;13.03;;;10.83;;
1569;SDS011;778;50.120;8.698;2023-06-19T02:35:36;12.63;;;11.37;;
1569;SDS011;778;50.120;8.698;2023-06-19T02:38:04;13.63;;;11.87;;
1569;SDS011;778;50.120;8.698;2023-06-19T02:40:33;13.27;;;12.23;;
1569;SDS011;778;50.120;8.698;2023-06-19T02:43:02;12.50;;;11.40;;
1569;SDS011;778;50.120;8.698;2023-06-19T02:45:32;11.83;;;10.90;;
1569;SDS011;778;50.120;8.698;2023-06-19T02:48:01;12.00;;;11.00;;
1569;SDS011;778;50.120;8.698;2023-06-19T02:50:31;12.23;;;11.30;;
1569;SDS011;778;50.120;8.698;2023-06-19T02:53:00;12.80;;;11.70;;
1569;SDS011;778;50.120;8.698;2023-06-19T02:55:29;13.47;;;12.47;;
1569;SDS011;778;50.120;8.698;2023-06-19T02:57:58;12.80;;;11.80;;
1569;SDS011;778;50.120;8.698;2023-06-19T03:00:27;12.40;;;11.40;;
1569;SDS011;778;50.120;8.698;2023-06-19T03:02:57;12.10;;;11.20;;
1569;SDS011;778;50.120;8.698;2023-06-19T03:05:26;12.10;;;11.00;;
1569;SDS011;778;50.120;8.698;2023-06-19T03:07:55;12.20;;;10.80;;
1569;SDS011;778;50.120;8.698;2023-06-19T03:10:24;13.00;;;11.80;;
1569;SDS011;778;50.120;8.698;2023-06-19T03:12:53;11.57;;;10.67;;
1569;SDS011;778;50.120;8.698;2023-06-19T03:15:22;13.03;;;11.93;;
1569;SDS011;778;50.120;8.698;2023-06-19T03:17:51;11.80;;;10.90;;
1569;SDS011;778;50.120;8.698;2023-06-19T03:20:24;11.20;;;10.30;;
1569;SDS011;778;50.120;8.698;2023-06-19T03:22:56;11.43;;;10.43;;
1569;SDS011;778;50.120;8.698;2023-06-19T03:25:26;11.30;;;10.40;;
1569;SDS011;778;50.120;8.698;2023-06-19T03:28:02;12.27;;;11.27;;
1569;SDS011;778;50.120;8.698;2023-06-19T03:30:33;10.83;;;9.93;;
1569;SDS011;778;50.120;8.698;2023-06-19T03:33:01;10.47;;;9.67;;
1569;SDS011;778;50.120;8.698;2023-06-19T03:35:40;12.10;;;10.90;;
1569;SDS011;778;50.120;8.698;2023-06-19T03:38:16;10.03;;;9.33;;
1569;SDS011;778;50.120;8.698;2023-06-19T03:40:46;11.27;;;10.27;;
1569;SDS011;778;50.120;8.698;2023-06-19T03:43:15;11.33;;;10.33;;
1569;SDS011;778;50.120;8.698;2023-06-19T03:45:44;10.60;;;9.80;;
1569;SDS011;778;50.120;8.698;2023-06-19T03:48:13;10.50;;;9.70;;
1569;SDS011;778;50.120;8.698;2023-06-19T03:50:44;10.00;;;9.30;;
1569;SDS011;778;50.120;8.698;2023-06-19T03:53:12;9.83;;;8.93;;
1569;SDS011;778;50.120;8.698;2023-06-19T03:55:42;10.70;;;9.87;;
1569;SDS011;778;50.120;8.698;2023-06-19T03:58:12;12.30;;;11.30;;
1569;SDS011;778;50.120;8.698;2023-06-19T04:00:41;11.90;;;11.00;;
1569;SDS011;778;50.120;8.698;2023-06-19T04:03:10;11.53;;;10.63;;
1569;SDS011;778;50.120;8.698;2023-06-19T04:05:39;11.87;;;10.87;;
1569;SDS011;778;50.120;8.698;2023-06-19T04:08:12;12.20;;;11.20;;
1569;SDS011;778;50.120;8.698;2023-06-19T04:10:42;11.40;;;10.50;;
1569;SDS011;778;50.120;8.698;2023-06-19T04:13:11;13.23;;;11.97;;
1569;SDS011;778;50.120;8.698;2023-06-19T04:15:40;11.53;;;10.73;;
1569;SDS011;778;50.120;8.698;2023-06-19T04:18:13;11.40;;;10.37;;
1569;SDS011;778;50.120;8.698;2023-06-19T04:20:42;12.17;;;10.97;;
1569;SDS011;778;50.120;8.698;2023-06-19T04:23:13;11.37;;;10.40;;
1569;SDS011;778;50.120;8.698;2023-06-19T04:25:41;10.70;;;9.70;;
1569;SDS011;778;50.120;8.698;2023-06-19T04:28:10;9.90;;;9.10;;
1569;SDS011;778;50.120;8.698;2023-06-19T04:30:39;10.00;;;9.10;;
1569;SDS011;778;50.120;8.698;2023-06-19T04:33:09;10.20;;;9.43;;
1569;SDS011;778;50.120;8.698;2023-06-19T04:35:38;10.40;;;9.50;;
1569;SDS011;778;50.120;8.698;2023-06-19T04:38:07;10.60;;;9.57;;
1569;SDS011;778;50.120;8.698;2023-06-19T04:40:38;8.90;;;8.10;;
1569;SDS011;778;50.120;8.698;2023-06-19T04:43:09;9.90;;;9.10;;
1569;SDS011;778;50.120;8.698;2023-06-19T04:45:39;9.13;;;8.33;;
1569;SDS011;778;50.120;8.698;2023-06-19T04:48:08;8.13;;;7.43;;
1569;SDS011;778;50.120;8.698;2023-06-19T04:50:37;8.83;;;8.00;;
1569;SDS011;778;50.120;8.698;2023-06-19T04:53:06;8.63;;;7.33;;
1569;SDS011;778;50.120;8.698;2023-06-19T04:55:35;8.43;;;7.73;;
1569;SDS011;778;50.120;8.698;2023-06-19T04:58:05;9.37;;;8.00;;
1569;SDS011;778;50.120;8.698;2023-06-19T05:00:34;7.80;;;7.30;;
1569;SDS011;778;50.120;8.698;2023-06-19T05:03:02;8.20;;;7.50;;
1569;SDS011;778;50.120;8.698;2023-06-19T05:05:32;7.80;;;7.20;;
1569;SDS011;778;50.120;8.698;2023-06-19T05:08:01;8.40;;;7.60;;
1569;SDS011;778;50.120;8.698;2023-06-19T05:10:29;8.97;;;8.07;;
1569;SDS011;778;50.120;8.698;2023-06-19T05:12:59;7.97;;;7.27;;
1569;SDS011;778;50.120;8.698;2023-06-19T05:15:29;7.03;;;6.53;;
1569;SDS011;778;50.120;8.698;2023-06-19T05:17:58;8.83;;;7.57;;
1569;SDS011;778;50.120;8.698;2023-06-19T05:20:27;6.73;;;6.23;;
1569;SDS011;778;50.120;8.698;2023-06-19T05:22:55;9.83;;;8.00;;
1569;SDS011;778;50.120;8.698;2023-06-19T05:25:24;7.87;;;7.17;;
1569;SDS011;778;50.120;8.698;2023-06-19T05:27:54;6.70;;;6.00;;
1569;SDS011;778;50.120;8.698;2023-06-19T05:30:24;7.27;;;6.77;;
1569;SDS011;778;50.120;8.698;2023-06-19T05:32:52;7.67;;;6.63;;
1569;SDS011;778;50.120;8.698;2023-06-19T05:35:21;7.60;;;6.80;;
1569;SDS011;778;50.120;8.698;2023-06-19T05:37:52;7.03;;;6.33;;
1569;SDS011;778;50.120;8.698;2023-06-19T05:40:21;6.60;;;6.10;;
1569;SDS011;778;50.120;8.698;2023-06-19T05:42:50;6.50;;;5.60;;
1569;SDS011;778;50.120;8.698;2023-06-19T05:45:18;6.47;;;5.97;;
1569;SDS011;778;50.120;8.698;2023-06-19T05:47:49;6.67;;;6.07;;
1569;SDS011;778;50.120;8.698;2023-06-19T05:50:17;6.03;;;5.53;;
1569;SDS011;778;50.120;8.698;2023-06-19T05:52:47;6.30;;;5.80;;
1569;SDS011;778;50.120;8.698;2023-06-19T05:55:15;6.43;;;5.93;;
1569;SDS011;778;50.120;8.698;2023-06-19T05:57:44;6.27;;;5.73;;
1569;SDS011;778;50.120;8.698;2023-06-19T06:00:13;6.37;;;5.77;;
1569;SDS011;778;50.120;8.698;2023-06-19T06:02:43;6.77;;;6.27;;
1569;SDS011;778;50.120;8.698;2023-06-19T06:05:13;5.50;;;5.10;;
1569;SDS011;778;50.120;8.698;2023-06-19T06:07:43;5.37;;;4.83;;
1569;SDS011;778;50.120;8.698;2023-06-19T06:10:12;5.80;;;5.30;;
1569;SDS011;778;50.120;8.698;2023-06-19T06:12:43;6.60;;;5.97;;
1569;SDS011;778;50.120;8.698;2023-06-19T06:15:12;6.33;;;5.87;;
1569;SDS011;778;50.120;8.698;2023-06-19T06:17:40;6.70;;;6.10;;
1569;SDS011;778;50.120;8.698;2023-06-19T06:20:09;5.77;;;5.27;;
1569;SDS011;778;50.120;8.698;2023-06-19T06:22:40;5.67;;;5.27;;
1569;SDS011;778;50.120;8.698;2023-06-19T06:25:10;5.60;;;5.10;;
1569;SDS011;778;50.120;8.698;2023-06-19T06:27:40;6.00;;;5.40;;
1569;SDS011;778;50.120;8.698;2023-06-19T06:30:09;6.53;;;5.47;;
1569;SDS011;778;50.120;8.698;2023-06-19T06:32:39;6.27;;;5.67;;
1569;SDS011;778;50.120;8.698;2023-06-19T06:35:08;5.77;;;5.37;;
1569;SDS011;778;50.120;8.698;2023-06-19T06:37:37;6.00;;;5.60;;
1569;SDS011;778;50.120;8.698;2023-06-19T06:40:08;6.40;;;4.60;;
1569;SDS011;778;50.120;8.698;2023-06-19T06:42:38;6.50;;;4.90;;
1569;SDS011;778;50.120;8.698;2023-06-19T06:45:08;7.07;;;4.90;;
1569;SDS011;778;50.120;8.698;2023-06-19T06:47:37;11.90;;;4.97;;
1569;SDS011;778;50.120;8.698;2023-06-19T06:50:07;5.40;;;4.90;;
1569;SDS011;778;50.120;8.698;2023-06-19T06:52:36;5.60;;;4.67;;
1569;SDS011;778;50.120;8.698;2023-06-19T06:55:07;5.33;;;4.80;;
1569;SDS011;778;50.120;8.698;2023-06-19T06:57:36;4.90;;;4.50;;
1569;SDS011;778;50.120;8.698;2023-06-19T07:00:05;4.67;;;4.27;;
1569;SDS011;778;50.120;8.698;2023-06-19T07:02:37;6.43;;;4.73;;
1569;SDS011;778;50.120;8.698;2023-06-19T07:05:07;6.80;;;5.23;;
1569;SDS011;778;50.120;8.698;2023-06-19T07:07:36;5.10;;;4.70;;
1569;SDS011;778;50.120;8.698;2023-06-19T07:10:05;5.63;;;5.00;;
1569;SDS011;778;50.120;8.698;2023-06-19T07:12:43;11.43;;;4.97;;
1569;SDS011;778;50.120;8.698;2023-06-19T07:15:13;4.70;;;4.30;;
1569;SDS011;778;50.120;8.698;2023-06-19T07:17:42;4.40;;;4.10;;
1569;SDS011;778;50.120;8.698;2023-06-19T07:20:11;5.40;;;4.90;;
1569;SDS011;778;50.120;8.698;2023-06-19T07:22:40;4.10;;;3.80;;
1569;SDS011;778;50.120;8.698;2023-06-19T07:25:12;7.13;;;5.33;;
1569;SDS011;778;50.120;8.698;2023-06-19T07:27:41;4.37;;;4.07;;
1569;SDS011;778;50.120;8.698;2023-06-19T07:30:10;4.60;;;4.20;;
1569;SDS011;778;50.120;8.698;2023-06-19T07:32:42;5.17;;;4.87;;
1569;SDS011;778;50.120;8.698;2023-06-19T07:35:11;6.17;;;4.70;;
1569;SDS011;778;50.120;8.698;2023-06-19T07:37:40;4.47;;;4.17;;
1569;SDS011;778;50.120;8.698;2023-06-19T07:40:09;4.97;;;4.57;;
1569;SDS011;778;50.120;8.698;2023-06-19T07:42:40;4.80;;;4.40;;
1569;SDS011;778;50.120;8.698;2023-06-19T07:45:11;5.17;;;4.67;;
1569;SDS011;778;50.120;8.698;2023-06-19T07:47:40;5.03;;;4.70;;
1569;SDS011;778;50.120;8.698;2023-06-19T07:50:09;6.20;;;4.50;;
1569;SDS011;778;50.120;8.698;2023-06-19T07:52:38;4.70;;;4.40;;
1569;SDS011;778;50.120;8.698;2023-06-19T07:55:07;5.03;;;4.37;;
1569;SDS011;778;50.120;8.698;2023-06-19T07:57:37;4.23;;;3.93;;
1569;SDS011;778;50.120;8.698;2023-06-19T08:00:06;5.63;;;5.23;;
1569;SDS011;778;50.120;8.698;2023-06-19T08:02:38;4.03;;;3.73;;
1569;SDS011;778;50.120;8.698;2023-06-19T08:05:07;4.13;;;3.83;;
1569;SDS011;778;50.120;8.698;2023-06-19T08:07:37;5.00;;;4.50;;
1569;SDS011;778;50.120;8.698;2023-06-19T08:10:06;4.53;;;4.23;;
1569;SDS011;778;50.120;8.698;2023-06-19T08:12:54;5.67;;;4.00;;
1569;SDS011;778;50.120;8.698;2023-06-19T08:15:23;4.53;;;4.20;;
1569;SDS011;778;50.120;8.698;2023-06-19T08:17:52;8.10;;;4.67;;
1569;SDS011;778;50.120;8.698;2023-06-19T08:20:21;5.50;;;5.03;;
1569;SDS011;778;50.120;8.698;2023-06-19T08:22:50;5.10;;;4.70;;
1569;SDS011;778;50.120;8.698;2023-06-19T08:25:22;5.20;;;4.70;;
1569;SDS011;778;50.120;8.698;2023-06-19T08:27:51;5.20;;;4.80;;
1569;SDS011;778;50.120;8.698;2023-06-19T08:30:21;5.43;;;4.93;;
1569;SDS011;778;50.120;8.698;2023-06-19T08:32:51;4.93;;;4.53;;
1569;SDS011;778;50.120;8.698;2023-06-19T08:35:20;5.10;;;4.70;;
1569;SDS011;778;50.120;8.698;2023-06-19T08:37:49;4.37;;;3.97;;
1569;SDS011;778;50.120;8.698;2023-06-19T08:40:19;4.60;;;4.30;;
1569;SDS011;778;50.120;8.698;2023-06-19T08:42:48;4.80;;;4.40;;
1569;SDS011;778;50.120;8.698;2023-06-19T08:45:18;6.63;;;4.80;;
1569;SDS011;778;50.120;8.698;2023-06-19T08:47:48;5.60;;;4.70;;
1569;SDS011;778;50.120;8.698;2023-06-19T08:50:17;4.67;;;4.27;;
1569;SDS011;778;50.120;8.698;2023-06-19T08:52:46;5.43;;;5.00;;
1569;SDS011;778;50.120;8.698;2023-06-19T08:55:15;5.60;;;5.20;;
1569;SDS011;778;50.120;8.698;2023-06-19T08:57:43;5.43;;;5.03;;
1569;SDS011;778;50.120;8.698;2023-06-19T09:00:22;5.13;;;4.80;;
1569;SDS011;778;50.120;8.698;2023-06-19T09:02:59;5.90;;;4.50;;
1569;SDS011;778;50.120;8.698;2023-06-19T09:05:40;4.73;;;4.30;;
1569;SDS011;778;50.120;8.698;2023-06-19T09:08:17;4.93;;;4.53;;
1569;SDS011;778;50.120;8.698;2023-06-19T09:10:57;6.00;;;5.60;;
1569;SDS011;778;50.120;8.698;2023-06-19T09:13:26;6.03;;;5.43;;
1569;SDS011;778;50.120;8.698;2023-06-19T09:15:57;6.83;;;5.20;;
1569;SDS011;778;50.120;8.698;2023-06-19T09:18:30;5.27;;;4.87;;
1569;SDS011;778;50.120;8.698;2023-06-19T09:20:59;5.50;;;5.10;;
1569;SDS011;778;50.120;8.698;2023-06-19T09:23:27;6.07;;;5.57;;
1569;SDS011;778;50.120;8.698;2023-06-19T09:26:00;5.80;;;5.00;;
1569;SDS011;778;50.120;8.698;2023-06-19T09:28:32;5.03;;;4.57;;
1569;SDS011;778;50.120;8.698;2023-06-19T09:31:02;4.57;;;4.27;;
1569;SDS011;778;50.120;8.698;2023-06-19T09:33:33;6.97;;;5.23;;
1569;SDS011;778;50.120;8.698;2023-06-19T09:36:03;6.10;;;5.60;;
1569;SDS011;778;50.120;8.698;2023-06-19T09:38:33;5.03;;;4.73;;
1569;SDS011;778;50.120;8.698;2023-06-19T09:41:07;5.53;;;4.17;;
1569;SDS011;778;50.120;8.698;2023-06-19T09:43:36;4.57;;;4.17;;
1569;SDS011;778;50.120;8.698;2023-06-19T09:46:07;5.30;;;5.00;;
1569;SDS011;778;50.120;8.698;2023-06-19T09:48:41;6.80;;;5.23;;
1569;SDS011;778;50.120;8.698;2023-06-19T09:51:12;5.27;;;4.73;;
1569;SDS011;778;50.120;8.698;2023-06-19T09:53:47;5.67;;;5.03;;
1569;SDS011;778;50.120;8.698;2023-06-19T09:56:17;5.00;;;4.57;;
1569;SDS011;778;50.120;8.698;2023-06-19T09:58:49;4.90;;;4.60;;
1569;SDS011;778;50.120;8.698;2023-06-19T10:01:20;8.10;;;4.27;;
1569;SDS011;778;50.120;8.698;2023-06-19T10:03:50;5.07;;;4.77;;
1569;SDS011;778;50.120;8.698;2023-06-19T10:06:32;4.87;;;4.47;;
1569;SDS011;778;50.120;8.698;2023-06-19T10:09:10;5.40;;;4.90;;
1569;SDS011;778;50.120;8.698;2023-06-19T10:11:45;4.70;;;4.27;;
1569;SDS011;778;50.120;8.698;2023-06-19T10:14:14;5.23;;;4.73;;
1569;SDS011;778;50.120;8.698;2023-06-19T10:16:45;4.93;;;4.63;;
1569;SDS011;778;50.120;8.698;2023-06-19T10:19:16;8.47;;;4.97;;
1569;SDS011;778;50.120;8.698;2023-06-19T10:21:48;4.90;;;4.47;;
1569;SDS011;778;50.120;8.698;2023-06-19T10:24:18;4.57;;;4.27;;
1569;SDS011;778;50.120;8.698;2023-06-19T10:26:58;5.90;;;5.50;;
1569;SDS011;778;50.120;8.698;2023-06-19T10:29:37;5.83;;;5.37;;
1569;SDS011;778;50.120;8.698;2023-06-19T10:32:12;5.47;;;5.03;;
1569;SDS011;778;50.120;8.698;2023-06-19T10:34:46;6.00;;;5.00;;
1569;SDS011;778;50.120;8.698;2023-06-19T10:37:15;4.90;;;4.50;;
1569;SDS011;778;50.120;8.698;2023-06-19T10:39:44;5.40;;;5.00;;
1569;SDS011;778;50.120;8.698;2023-06-19T10:42:12;5.80;;;5.20;;
1569;SDS011;778;50.120;8.698;2023-06-19T10:44:41;6.63;;;5.57;;
1569;SDS011;778;50.120;8.698;2023-06-19T10:47:10;6.03;;;5.37;;
1569;SDS011;778;50.120;8.698;2023-06-19T10:49:39;5.40;;;5.00;;
1569;SDS011;778;50.120;8.698;2023-06-19T10:52:09;4.77;;;4.47;;
1569;SDS011;778;50.120;8.698;2023-06-19T10:54:38;6.43;;;5.83;;
1569;SDS011;778;50.120;8.698;2023-06-19T10:57:06;6.07;;;5.57;;
1569;SDS011;778;50.120;8.698;2023-06-19T10:59:35;5.87;;;5.37;;
1569;SDS011;778;50.120;8.698;2023-06-19T11:02:06;6.10;;;5.60;;
1569;SDS011;778;50.120;8.698;2023-06-19T11:04:37;5.53;;;5.03;;
1569;SDS011;778;50.120;8.698;2023-06-19T11:07:09;6.83;;;5.27;;
1569;SDS011;778;50.120;8.698;2023-06-19T11:09:37;5.50;;;5.20;;
1569;SDS011;778;50.120;8.698;2023-06-19T11:12:11;5.43;;;4.93;;
1569;SDS011;778;50.120;8.698;2023-06-19T11:14:39;5.00;;;4.60;;
1569;SDS011;778;50.120;8.698;2023-06-19T11:17:08;5.67;;;5.17;;
1569;SDS011;778;50.120;8.698;2023-06-19T11:19:38;5.20;;;4.90;;
1569;SDS011;778;50.120;8.698;2023-06-19T11:22:10;5.70;;;5.20;;
1569;SDS011;778;50.120;8.698;2023-06-19T11:24:43;6.20;;;5.27;;
1569;SDS011;778;50.120;8.698;2023-06-19T11:27:19;6.27;;;5.00;;
1569;SDS011;778;50.120;8.698;2023-06-19T11:29:56;5.23;;;4.90;;
1569;SDS011;778;50.120;8.698;2023-06-19T11:32:30;5.17;;;4.77;;
1569;SDS011;778;50.120;8.698;2023-06-19T11:35:04;5.60;;;5.00;;
1569;SDS011;778;50.120;8.698;2023-06-19T11:37:36;5.40;;;4.90;;
1569;SDS011;778;50.120;8.698;2023-06-19T11:40:08;7.03;;;5.00;;
1569;SDS011;778;50.120;8.698;2023-06-19T11:42:45;5.20;;;4.70;;
1569;SDS011;778;50.120;8.698;2023-06-19T11:45:15;5.27;;;4.87;;
1569;SDS011;778;50.120;8.698;2023-06-19T11:47:44;5.13;;;4.80;;
1569;SDS011;778;50.120;8.698;2023-06-19T11:50:15;5.27;;;4.77;;
1569;SDS011;778;50.120;8.698;2023-06-19T11:52:47;5.20;;;4.80;;
1569;SDS011;778;50.120;8.698;2023-06-19T11:55:16;4.23;;;3.93;;
1569;SDS011;778;50.120;8.698;2023-06-19T11:57:45;5.30;;;4.90;;
1569;SDS011;778;50.120;8.698;2023-06-19T12:00:14;5.60;;;4.90;;
1569;SDS011;778;50.120;8.698;2023-06-19T12:02:44;5.53;;;5.20;;
1569;SDS011;778;50.120;8.698;2023-06-19T12:05:14;5.07;;;4.63;;
1569;SDS011;778;50.120;8.698;2023-06-19T12:07:43;6.17;;;5.57;;
1569;SDS011;778;50.120;8.698;2023-06-19T12:10:13;4.80;;;4.40;;
1569;SDS011;778;50.120;8.698;2023-06-19T12:12:42;5.23;;;4.93;;
1569;SDS011;778;50.120;8.698;2023-06-19T12:15:11;5.07;;;4.67;;
1569;SDS011;778;50.120;8.698;2023-06-19T12:17:40;7.33;;;4.33;;
1569;SDS011;778;50.120;8.698;2023-06-19T12:20:09;5.90;;;5.30;;
1569;SDS011;778;50.120;8.698;2023-06-19T12:22:40;5.77;;;5.37;;
1569;SDS011;778;50.120;8.698;2023-06-19T12:25:09;5.27;;;4.87;;
1569;SDS011;778;50.120;8.698;2023-06-19T12:27:39;5.80;;;5.30;;
1569;SDS011;778;50.120;8.698;2023-06-19T12:30:08;5.30;;;4.80;;
1569;SDS011;778;50.120;8.698;2023-06-19T12:32:38;6.30;;;5.90;;
1569;SDS011;778;50.120;8.698;2023-06-19T12:35:07;5.17;;;4.67;;
1569;SDS011;778;50.120;8.698;2023-06-19T12:37:36;6.33;;;5.73;;
1569;SDS011;778;50.120;8.698;2023-06-19T12:40:05;6.50;;;4.80;;
1569;SDS011;778;50.120;8.698;2023-06-19T12:42:37;5.67;;;5.17;;
1569;SDS011;778;50.120;8.698;2023-06-19T12:45:07;4.63;;;4.23;;
1569;SDS011;778;50.120;8.698;2023-06-19T12:47:37;4.70;;;4.40;;
1569;SDS011;778;50.120;8.698;2023-06-19T12:50:06;5.17;;;4.67;;
1569;SDS011;778;50.120;8.698;2023-06-19T12:52:36;5.40;;;4.90;;
1569;SDS011;778;50.120;8.698;2023-06-19T12:55:05;5.27;;;4.83;;
1569;SDS011;778;50.120;8.698;2023-06-19T12:57:35;5.37;;;4.97;;
1569;SDS011;778;50.120;8.698;2023-06-19T13:00:05;5.00;;;4.60;;
1569;SDS011;778;50.120;8.698;2023-06-19T13:02:38;4.97;;;4.67;;
1569;SDS011;778;50.120;8.698;2023-06-19T13:05:07;5.27;;;4.77;;
1569;SDS011;778;50.120;8.698;2023-06-19T13:07:36;5.20;;;4.90;;
1569;SDS011;778;50.120;8.698;2023-06-19T13:10:05;5.13;;;4.73;;
1569;SDS011;778;50.120;8.698;2023-06-19T13:12:34;5.00;;;4.70;;
1569;SDS011;778;50.120;8.698;2023-06-19T13:15:03;4.43;;;4.13;;
1569;SDS011;778;50.120;8.698;2023-06-19T13:17:34;4.93;;;4.63;;
1569;SDS011;778;50.120;8.698;2023-06-19T13:20:03;5.87;;;5.37;;
1569;SDS011;778;50.120;8.698;2023-06-19T13:22:33;5.00;;;4.70;;
1569;SDS011;778;50.120;8.698;2023-06-19T13:25:02;5.37;;;4.47;;
1569;SDS011;778;50.120;8.698;2023-06-19T13:27:31;4.60;;;4.30;;
1569;SDS011;778;50.120;8.698;2023-06-19T13:30:00;4.57;;;4.17;;
1569;SDS011;778;50.120;8.698;2023-06-19T13:32:30;5.53;;;5.13;;
1569;SDS011;778;50.120;8.698;2023-06-19T13:34:59;5.30;;;4.90;;
1569;SDS011;778;50.120;8.698;2023-06-19T13:37:28;5.10;;;4.57;;
1569;SDS011;778;50.120;8.698;2023-06-19T13:39:57;5.87;;;4.63;;
1569;SDS011;778;50.120;8.698;2023-06-19T13:42:26;4.60;;;4.23;;
1569;SDS011;778;50.120;8.698;2023-06-19T13:44:56;4.73;;;4.13;;
1569;SDS011;778;50.120;8.698;2023-06-19T13:47:25;5.13;;;4.63;;
1569;SDS011;778;50.120;8.698;2023-06-19T13:49:55;5.13;;;4.07;;
1569;SDS011;778;50.120;8.698;2023-06-19T13:52:24;4.40;;;4.10;;
1569;SDS011;778;50.120;8.698;2023-06-19T13:54:52;4.40;;;4.00;;
1569;SDS011;778;50.120;8.698;2023-06-19T13:57:21;4.13;;;3.83;;
1569;SDS011;778;50.120;8.698;2023-06-19T13:59:50;5.80;;;3.93;;
1569;SDS011;778;50.120;8.698;2023-06-19T14:02:19;4.23;;;3.93;;
1569;SDS011;778;50.120;8.698;2023-06-19T14:04:47;4.53;;;4.10;;
1569;SDS011;778;50.120;8.698;2023-06-19T14:07:18;4.30;;;3.87;;
1569;SDS011;778;50.120;8.698;2023-06-19T14:09:48;4.03;;;3.73;;
1569;SDS011;778;50.120;8.698;2023-06-19T14:12:19;4.20;;;3.90;;
1569;SDS011;778;50.120;8.698;2023-06-19T14:14:48;5.07;;;4.10;;
1569;SDS011;778;50.120;8.698;2023-06-19T14:17:18;4.97;;;4.50;;
1569;SDS011;778;50.120;8.698;2023-06-19T14:19:47;4.43;;;4.03;;
1569;SDS011;778;50.120;8.698;2023-06-19T14:22:19;4.37;;;3.97;;
1569;SDS011;778;50.120;8.698;2023-06-19T14:24:47;4.13;;;3.83;;
1569;SDS011;778;50.120;8.698;2023-06-19T14:27:16;4.43;;;4.00;;
1569;SDS011;778;50.120;8.698;2023-06-19T14:29:45;3.53;;;3.33;;
1569;SDS011;778;50.120;8.698;2023-06-19T14:32:13;4.07;;;3.50;;
1569;SDS011;778;50.120;8.698;2023-06-19T14:34:42;6.40;;;3.43;;
1569;SDS011;778;50.120;8.698;2023-06-19T14:37:11;4.10;;;3.80;;
1569;SDS011;778;50.120;8.698;2023-06-19T14:39:41;4.40;;;4.00;;
1569;SDS011;778;50.120;8.698;2023-06-19T14:42:10;5.87;;;3.87;;
1569;SDS011;778;50.120;8.698;2023-06-19T14:44:38;4.10;;;3.80;;
1569;SDS011;778;50.120;8.698;2023-06-19T14:47:07;5.60;;;3.83;;
1569;SDS011;778;50.120;8.698;2023-06-19T14:49:36;4.00;;;3.60;;
1569;SDS011;778;50.120;8.698;2023-06-19T14:52:05;4.63;;;4.23;;
1569;SDS011;778;50.120;8.698;2023-06-19T14:54:34;4.23;;;3.83;;
1569;SDS011;778;50.120;8.698;2023-06-19T14:57:05;4.23;;;3.83;;
1569;SDS011;778;50.120;8.698;2023-06-19T14:59:34;5.63;;;3.80;;
1569;SDS011;778;50.120;8.698;2023-06-19T15:02:03;4.67;;;3.47;;
1569;SDS011;778;50.120;8.698;2023-06-19T15:04:33;4.20;;;3.90;;
1569;SDS011;778;50.120;8.698;2023-06-19T15:07:02;3.77;;;3.47;;
1569;SDS011;778;50.120;8.698;2023-06-19T15:09:30;5.13;;;4.63;;
1569;SDS011;778;50.120;8.698;2023-06-19T15:11:59;7.90;;;7.30;;
1569;SDS011;778;50.120;8.698;2023-06-19T15:14:29;4.07;;;3.27;;
1569;SDS011;778;50.120;8.698;2023-06-19T15:16:59;3.60;;;3.30;;
1569;SDS011;778;50.120;8.698;2023-06-19T15:19:28;5.00;;;4.43;;
1569;SDS011;778;50.120;8.698;2023-06-19T15:21:57;3.70;;;3.40;;
1569;SDS011;778;50.120;8.698;2023-06-19T15:24:26;3.73;;;3.43;;
1569;SDS011;778;50.120;8.698;2023-06-19T15:26:54;4.90;;;4.60;;
1569;SDS011;778;50.120;8.698;2023-06-19T15:29:25;3.63;;;3.33;;
1569;SDS011;778;50.120;8.698;2023-06-19T15:31:55;5.87;;;5.27;;
1569;SDS011;778;50.120;8.698;2023-06-19T15:34:24;4.80;;;4.40;;
1569;SDS011;778;50.120;8.698;2023-06-19T15:36:53;5.23;;;4.83;;
1569;SDS011;778;50.120;8.698;2023-06-19T15:39:21;4.87;;;4.37;;